createdAt,value
2022-08-21T00:00:02.494Z,98097.94
2022-08-21T00:05:15.171Z,98094.19
2022-08-21T00:10:18.964Z,98092.78
2022-08-21T00:15:27.532Z,98082.38
2022-08-21T00:20:30.242Z,98089.50
2022-08-21T00:25:33.805Z,98081.13
2022-08-21T00:30:36.903Z,98082.72
2022-08-21T00:35:42.725Z,98082.38
2022-08-21T00:40:52.438Z,98084.03
2022-08-21T00:45:56.307Z,98088.19
2022-08-21T00:51:13.371Z,98083.00
2022-08-21T00:56:15.911Z,98077.50
2022-08-21T01:01:19.913Z,98067.69
2022-08-21T01:06:22.598Z,98063.75
2022-08-21T01:11:25.561Z,98070.09
2022-08-21T01:16:28.219Z,98069.69
2022-08-21T01:21:30.715Z,98069.94
2022-08-21T01:26:38.084Z,98076.25
2022-08-21T01:31:40.808Z,98068.06
2022-08-21T01:36:45.288Z,98069.16
2022-08-21T01:41:47.887Z,98068.25
2022-08-21T01:46:51.146Z,98062.56
2022-08-21T01:51:53.652Z,98055.47
2022-08-21T01:56:56.299Z,98059.75
2022-08-21T02:01:58.933Z,98062.34
2022-08-21T02:07:02.571Z,98050.28
2022-08-21T02:12:05.305Z,98042.19
2022-08-21T02:17:09.580Z,98044.44
2022-08-21T02:22:12.945Z,98047.44
2022-08-21T02:27:15.439Z,98043.72
2022-08-21T02:32:18.176Z,98042.31
2022-08-21T02:37:20.842Z,98039.38
2022-08-21T02:42:23.569Z,98044.19
2022-08-21T02:47:26.159Z,98037.06
2022-08-21T02:52:28.796Z,98036.59
2022-08-21T02:57:33.420Z,98042.69
2022-08-21T03:02:35.891Z,98048.91
2022-08-21T03:07:40.153Z,98042.31
2022-08-21T03:12:43.120Z,98039.84
2022-08-21T03:17:47.058Z,98040.28
2022-08-21T03:22:52.809Z,98046.13
2022-08-21T03:27:58.819Z,98036.63
2022-08-21T03:33:02.507Z,98038.75
2022-08-21T03:38:04.998Z,98044.31
2022-08-21T03:43:10.188Z,98045.69
2022-08-21T03:48:13.405Z,98054.72
2022-08-21T03:53:18.031Z,98066.41
2022-08-21T03:58:23.193Z,98062.38
2022-08-21T04:03:27.112Z,98060.94
2022-08-21T04:08:29.625Z,98069.81
2022-08-21T04:13:32.324Z,98061.50
2022-08-21T04:18:34.930Z,98070.69
2022-08-21T04:23:38.265Z,98075.00
2022-08-21T04:28:40.973Z,98085.34
2022-08-21T04:33:43.479Z,98076.88
2022-08-21T04:38:45.975Z,98089.97
2022-08-21T04:43:48.433Z,98089.44
2022-08-21T04:48:51.096Z,98101.19
2022-08-21T04:54:12.185Z,98095.75
2022-08-21T04:59:22.153Z,98094.00
2022-08-21T05:04:29.413Z,98097.06
2022-08-21T05:09:32.147Z,98093.75
2022-08-21T05:14:35.248Z,98099.31
2022-08-21T05:19:38.120Z,98111.16
2022-08-21T05:24:40.768Z,98114.66
2022-08-21T05:29:44.022Z,98115.25
2022-08-21T05:34:46.618Z,98119.00
2022-08-21T05:40:09.624Z,98121.78
2022-08-21T05:45:12.021Z,98119.28
2022-08-21T05:50:14.612Z,98125.22
2022-08-21T05:55:17.060Z,98125.84
2022-08-21T06:00:19.802Z,98126.28
2022-08-21T06:05:25.217Z,98122.09
2022-08-21T06:10:40.603Z,98123.31
2022-08-21T06:15:43.243Z,98123.94
2022-08-21T06:20:46.093Z,98129.69
2022-08-21T06:25:48.621Z,98126.66
2022-08-21T06:30:51.264Z,98131.47
2022-08-21T06:35:53.852Z,98124.69
2022-08-21T06:40:56.472Z,98126.69
2022-08-21T06:46:00.374Z,98116.34
2022-08-21T06:51:02.983Z,98119.81
2022-08-21T06:56:05.868Z,98106.59
2022-08-21T07:01:08.490Z,98113.41
2022-08-21T07:06:12.063Z,98111.56
2022-08-21T07:11:23.430Z,98097.97
2022-08-21T07:16:25.951Z,98096.31
2022-08-21T07:21:28.591Z,98107.31
2022-08-21T07:26:31.171Z,98106.69
2022-08-21T07:31:33.875Z,98094.44
2022-08-21T07:36:36.313Z,98096.59
2022-08-21T07:41:38.860Z,98093.28
2022-08-21T07:46:41.647Z,98087.59
2022-08-21T07:51:44.429Z,98087.44
2022-08-21T07:56:46.939Z,98091.38
2022-08-21T08:01:49.418Z,98089.53
2022-08-21T08:06:52.440Z,98074.19
2022-08-21T08:11:54.896Z,98078.28
2022-08-21T08:16:57.617Z,98074.63
2022-08-21T08:22:00.051Z,98074.59
2022-08-21T08:27:02.661Z,98072.44
2022-08-21T08:32:08.262Z,98068.78
2022-08-21T08:37:12.064Z,98061.91
2022-08-21T08:42:32.024Z,98050.34
2022-08-21T08:47:41.139Z,98050.19
2022-08-21T08:52:54.819Z,98041.88
2022-08-21T08:57:57.895Z,98041.88
2022-08-21T09:03:03.409Z,98035.75
2022-08-21T09:08:19.061Z,98034.63
2022-08-21T09:13:50.776Z,98035.38
2022-08-21T09:19:05.310Z,98034.59
2022-08-21T09:24:41.592Z,98035.28
2022-08-21T09:29:48.740Z,98032.00
2022-08-21T09:35:01.777Z,98034.19
2022-08-21T09:40:32.594Z,98023.97
2022-08-21T09:45:39.823Z,98023.75
2022-08-21T09:50:44.970Z,98016.59
2022-08-21T09:56:21.667Z,98011.16
2022-08-21T10:01:27.673Z,98006.81
2022-08-21T10:06:30.887Z,98006.41
2022-08-21T10:11:35.347Z,97999.91
2022-08-21T10:16:37.767Z,97994.97
2022-08-21T10:22:01.425Z,97995.91
2022-08-21T10:27:12.442Z,97993.25
2022-08-21T10:32:40.252Z,97990.00
2022-08-21T10:37:46.696Z,97981.72
2022-08-21T10:43:23.289Z,97980.44
2022-08-21T10:48:43.536Z,97976.63
2022-08-21T10:54:04.897Z,97971.06
2022-08-21T10:59:48.688Z,97967.25
2022-08-21T11:05:02.876Z,97965.88
2022-08-21T11:10:25.527Z,97951.00
2022-08-21T11:16:11.254Z,97949.16
2022-08-21T11:21:27.792Z,97955.31
2022-08-21T11:27:02.229Z,97943.16
2022-08-21T11:32:19.769Z,97940.59
2022-08-21T11:37:38.972Z,97937.84
2022-08-21T11:43:01.676Z,97938.78
2022-08-21T11:48:13.248Z,97932.22
2022-08-21T11:53:22.593Z,97923.47
2022-08-21T11:58:37.240Z,97917.38
2022-08-21T12:03:53.801Z,97907.97
2022-08-21T12:09:04.872Z,97914.56
2022-08-21T12:14:07.855Z,97925.69
2022-08-21T12:19:33.803Z,97910.44
2022-08-21T12:24:45.341Z,97905.19
2022-08-21T12:29:51.006Z,97890.72
2022-08-21T12:35:08.186Z,97880.91
2022-08-21T12:40:38.157Z,97887.38
2022-08-21T12:45:45.119Z,97872.59
2022-08-21T12:51:01.647Z,97881.50
2022-08-21T12:56:10.110Z,97877.34
2022-08-21T13:01:39.307Z,97883.53
2022-08-21T13:06:52.344Z,97876.00
2022-08-21T13:11:55.801Z,97876.91
2022-08-21T13:17:00.672Z,97870.44
2022-08-21T13:22:14.963Z,97866.22
2022-08-21T13:27:31.734Z,97875.09
2022-08-21T13:32:38.878Z,97869.22
2022-08-21T13:37:44.167Z,97862.34
2022-08-21T13:42:49.398Z,97859.81
2022-08-21T13:47:53.936Z,97858.66
2022-08-21T13:53:03.107Z,97854.84
2022-08-21T13:58:07.606Z,97853.53
2022-08-21T14:03:15.652Z,97846.16
2022-08-21T14:08:35.572Z,97851.31
2022-08-21T14:13:45.349Z,97855.16
2022-08-21T14:19:10.999Z,97847.88
2022-08-21T14:24:29.104Z,97833.44
2022-08-21T14:29:37.104Z,97841.81
2022-08-21T14:34:39.762Z,97840.41
2022-08-21T14:39:45.233Z,97826.00
2022-08-21T14:44:48.511Z,97823.88
2022-08-21T14:49:51.998Z,97823.75
2022-08-21T14:54:54.434Z,97828.09
2022-08-21T15:00:01.198Z,97801.81
2022-08-21T15:05:05.761Z,97806.41
2022-08-21T15:10:09.922Z,97805.91
2022-08-21T15:15:12.713Z,97809.13
2022-08-21T15:20:20.171Z,97797.34
2022-08-21T15:25:22.750Z,97791.56
2022-08-21T15:30:25.476Z,97785.72
2022-08-21T15:35:28.057Z,97787.84
2022-08-21T15:40:31.257Z,97787.16
2022-08-21T15:45:34.776Z,97772.97
2022-08-21T15:50:37.823Z,97778.38
2022-08-21T15:55:41.024Z,97768.25
2022-08-21T16:00:48.311Z,97770.25
2022-08-21T16:05:53.468Z,97767.47
2022-08-21T16:10:56.540Z,97771.16
2022-08-21T16:15:59.279Z,97766.63
2022-08-21T16:21:02.243Z,97764.47
2022-08-21T16:26:06.142Z,97752.50
2022-08-21T16:31:11.253Z,97751.38
2022-08-21T16:36:18.338Z,97750.91
2022-08-21T16:41:23.373Z,97751.84
2022-08-21T16:46:36.690Z,97751.47
2022-08-21T16:51:39.380Z,97746.66
2022-08-21T16:56:46.989Z,97744.69
2022-08-21T17:01:50.476Z,97745.13
2022-08-21T17:06:53.448Z,97735.91
2022-08-21T17:11:56.001Z,97743.22
2022-08-21T17:16:59.866Z,97739.66
2022-08-21T17:22:02.815Z,97738.34
2022-08-21T17:27:07.475Z,97749.69
2022-08-21T17:32:12.692Z,97743.66
2022-08-21T17:37:15.594Z,97745.69
2022-08-21T17:42:18.667Z,97736.63
2022-08-21T17:47:21.232Z,97741.88
2022-08-21T17:52:24.546Z,97741.88
2022-08-21T17:57:29.225Z,97757.75
2022-08-21T18:02:32.133Z,97743.81
2022-08-21T18:07:35.059Z,97754.53
2022-08-21T18:12:43.051Z,97764.13
2022-08-21T18:17:49.489Z,97762.97
2022-08-21T18:22:52.405Z,97759.97
2022-08-21T18:27:55.890Z,97767.72
2022-08-21T18:32:58.446Z,97771.31
2022-08-21T18:38:01.027Z,97771.84
2022-08-21T18:43:06.571Z,97780.66
2022-08-21T18:48:12.846Z,97779.47
2022-08-21T18:53:27.617Z,97789.44
2022-08-21T18:58:32.055Z,97782.34
2022-08-21T19:03:34.474Z,97786.00
2022-08-21T19:08:36.947Z,97788.06
2022-08-21T19:13:40.840Z,97793.94
2022-08-21T19:18:43.502Z,97809.09
2022-08-21T19:23:52.511Z,97813.28
2022-08-21T19:29:02.168Z,97810.50
2022-08-21T19:34:15.683Z,97809.09
2022-08-21T19:39:18.782Z,97817.81
2022-08-21T19:44:24.870Z,97819.00
2022-08-21T19:49:34.763Z,97813.00
2022-08-21T19:54:37.830Z,97818.06
2022-08-21T19:59:42.263Z,97821.06
2022-08-21T20:04:54.091Z,97821.34
2022-08-21T20:09:58.123Z,97827.69
2022-08-21T20:15:01.847Z,97825.00
2022-08-21T20:20:05.668Z,97825.50
2022-08-21T20:25:08.897Z,97820.31
2022-08-21T20:30:13.303Z,97826.41
2022-08-21T20:35:16.326Z,97833.44
2022-08-21T20:40:20.998Z,97829.06
2022-08-21T20:45:28.303Z,97824.53
2022-08-21T20:50:37.096Z,97830.31
2022-08-21T20:55:45.228Z,97827.75
2022-08-21T21:00:51.914Z,97824.66
2022-08-21T21:06:07.833Z,97823.66
2022-08-21T21:11:33.623Z,97824.50
2022-08-21T21:16:42.172Z,97818.91
2022-08-21T21:22:20.477Z,97826.00
2022-08-21T21:27:49.255Z,97821.94
2022-08-21T21:32:52.756Z,97826.19
2022-08-21T21:38:21.116Z,97823.34
2022-08-21T21:43:37.221Z,97821.38
2022-08-21T21:48:51.779Z,97821.47
2022-08-21T21:54:08.526Z,97827.16
2022-08-21T21:59:48.111Z,97827.69
2022-08-21T22:05:07.386Z,97824.34
2022-08-21T22:10:30.788Z,97823.09
2022-08-21T22:15:35.124Z,97826.41
2022-08-21T22:21:12.320Z,97826.88
2022-08-21T22:26:20.761Z,97826.25
2022-08-21T22:31:34.951Z,97828.47
2022-08-21T22:36:44.336Z,97830.09
2022-08-21T22:41:52.644Z,97823.03
2022-08-21T22:46:59.289Z,97830.88
2022-08-21T22:52:29.164Z,97838.81
2022-08-21T22:57:34.803Z,97839.47
2022-08-21T23:02:49.212Z,97839.16
2022-08-21T23:07:55.507Z,97835.91
2022-08-21T23:13:12.370Z,97832.28
2022-08-21T23:18:31.495Z,97823.41
2022-08-21T23:23:48.554Z,97823.53
2022-08-21T23:29:12.777Z,97826.72
2022-08-21T23:34:41.294Z,97821.88
2022-08-21T23:40:13.173Z,97822.13
2022-08-21T23:51:13.328Z,97822.25
2022-08-21T23:56:46.615Z,97825.34
